sensor_id;sensor_type;location;lat;lon;timestamp;P1;durP1;ratioP1;P2;durP2;ratioP2
13147;SDS011;6639;50.956;4.242;2022-10-16T00:01:38;1.05;;;1.00;;
13147;SDS011;6639;50.956;4.242;2022-10-16T00:04:05;1.00;;;1.00;;
13147;SDS011;6639;50.956;4.242;2022-10-16T00:06:32;2.20;;;0.85;;
13147;SDS011;6639;50.956;4.242;2022-10-16T00:09:00;1.95;;;1.08;;
13147;SDS011;6639;50.956;4.242;2022-10-16T00:11:27;1.25;;;1.15;;
13147;SDS011;6639;50.956;4.242;2022-10-16T00:13:56;0.98;;;0.98;;
13147;SDS011;6639;50.956;4.242;2022-10-16T00:16:24;2.78;;;1.25;;
13147;SDS011;6639;50.956;4.242;2022-10-16T00:18:51;2.95;;;1.20;;
13147;SDS011;6639;50.956;4.242;2022-10-16T00:21:19;1.77;;;0.90;;
13147;SDS011;6639;50.956;4.242;2022-10-16T00:23:50;3.08;;;1.20;;
13147;SDS011;6639;50.956;4.242;2022-10-16T00:26:18;1.17;;;1.08;;
13147;SDS011;6639;50.956;4.242;2022-10-16T00:28:45;2.42;;;1.20;;
13147;SDS011;6639;50.956;4.242;2022-10-16T00:31:12;1.17;;;1.08;;
13147;SDS011;6639;50.956;4.242;2022-10-16T00:33:39;1.45;;;1.35;;
13147;SDS011;6639;50.956;4.242;2022-10-16T00:36:07;1.02;;;0.93;;
13147;SDS011;6639;50.956;4.242;2022-10-16T00:38:36;1.38;;;1.27;;
13147;SDS011;6639;50.956;4.242;2022-10-16T00:41:04;1.55;;;1.45;;
13147;SDS011;6639;50.956;4.242;2022-10-16T00:43:36;1.40;;;1.30;;
13147;SDS011;6639;50.956;4.242;2022-10-16T00:46:08;1.30;;;1.20;;
13147;SDS011;6639;50.956;4.242;2022-10-16T00:48:40;2.35;;;1.40;;
13147;SDS011;6639;50.956;4.242;2022-10-16T00:51:09;2.28;;;1.77;;
13147;SDS011;6639;50.956;4.242;2022-10-16T00:53:36;1.55;;;1.30;;
13147;SDS011;6639;50.956;4.242;2022-10-16T00:56:03;1.58;;;1.40;;
13147;SDS011;6639;50.956;4.242;2022-10-16T00:58:30;1.67;;;1.20;;
13147;SDS011;6639;50.956;4.242;2022-10-16T01:00:59;1.33;;;1.23;;
13147;SDS011;6639;50.956;4.242;2022-10-16T01:03:27;1.38;;;1.35;;
13147;SDS011;6639;50.956;4.242;2022-10-16T01:05:58;3.95;;;1.45;;
13147;SDS011;6639;50.956;4.242;2022-10-16T01:08:37;1.85;;;1.60;;
13147;SDS011;6639;50.956;4.242;2022-10-16T01:11:11;3.20;;;1.25;;
13147;SDS011;6639;50.956;4.242;2022-10-16T01:13:45;1.40;;;1.30;;
13147;SDS011;6639;50.956;4.242;2022-10-16T01:16:19;1.40;;;1.30;;
13147;SDS011;6639;50.956;4.242;2022-10-16T01:18:54;1.52;;;1.42;;
13147;SDS011;6639;50.956;4.242;2022-10-16T01:21:26;4.25;;;1.50;;
13147;SDS011;6639;50.956;4.242;2022-10-16T01:23:57;1.77;;;1.50;;
13147;SDS011;6639;50.956;4.242;2022-10-16T01:26:31;1.77;;;1.52;;
13147;SDS011;6639;50.956;4.242;2022-10-16T01:29:15;4.45;;;1.63;;
13147;SDS011;6639;50.956;4.242;2022-10-16T01:31:47;2.92;;;1.80;;
13147;SDS011;6639;50.956;4.242;2022-10-16T01:34:18;3.50;;;1.60;;
13147;SDS011;6639;50.956;4.242;2022-10-16T01:36:49;1.63;;;1.52;;
13147;SDS011;6639;50.956;4.242;2022-10-16T01:39:20;1.83;;;1.58;;
13147;SDS011;6639;50.956;4.242;2022-10-16T01:41:51;1.58;;;1.48;;
13147;SDS011;6639;50.956;4.242;2022-10-16T01:44:27;2.65;;;1.80;;
13147;SDS011;6639;50.956;4.242;2022-10-16T01:46:57;3.17;;;1.70;;
13147;SDS011;6639;50.956;4.242;2022-10-16T01:49:26;1.92;;;1.83;;
13147;SDS011;6639;50.956;4.242;2022-10-16T01:51:57;1.92;;;1.75;;
13147;SDS011;6639;50.956;4.242;2022-10-16T01:54:27;1.98;;;1.88;;
13147;SDS011;6639;50.956;4.242;2022-10-16T01:56:56;2.20;;;1.92;;
13147;SDS011;6639;50.956;4.242;2022-10-16T01:59:27;1.80;;;1.65;;
13147;SDS011;6639;50.956;4.242;2022-10-16T02:01:59;3.63;;;2.00;;
13147;SDS011;6639;50.956;4.242;2022-10-16T02:04:30;1.85;;;1.73;;
13147;SDS011;6639;50.956;4.242;2022-10-16T02:07:00;1.73;;;1.55;;
13147;SDS011;6639;50.956;4.242;2022-10-16T02:09:27;2.40;;;1.58;;
13147;SDS011;6639;50.956;4.242;2022-10-16T02:11:55;2.30;;;1.70;;
13147;SDS011;6639;50.956;4.242;2022-10-16T02:14:29;1.88;;;1.60;;
13147;SDS011;6639;50.956;4.242;2022-10-16T02:16:56;3.92;;;1.98;;
13147;SDS011;6639;50.956;4.242;2022-10-16T02:19:22;1.95;;;1.75;;
13147;SDS011;6639;50.956;4.242;2022-10-16T02:21:51;1.70;;;1.60;;
13147;SDS011;6639;50.956;4.242;2022-10-16T02:24:22;2.45;;;1.83;;
13147;SDS011;6639;50.956;4.242;2022-10-16T02:26:57;1.60;;;1.42;;
13147;SDS011;6639;50.956;4.242;2022-10-16T02:29:31;3.47;;;1.92;;
13147;SDS011;6639;50.956;4.242;2022-10-16T02:32:03;3.17;;;2.08;;
13147;SDS011;6639;50.956;4.242;2022-10-16T02:34:32;2.53;;;1.90;;
13147;SDS011;6639;50.956;4.242;2022-10-16T02:37:00;2.47;;;2.28;;
13147;SDS011;6639;50.956;4.242;2022-10-16T02:39:29;2.05;;;1.88;;
13147;SDS011;6639;50.956;4.242;2022-10-16T02:41:57;4.97;;;2.00;;
13147;SDS011;6639;50.956;4.242;2022-10-16T02:44:23;3.67;;;2.00;;
13147;SDS011;6639;50.956;4.242;2022-10-16T02:46:52;2.88;;;1.75;;
13147;SDS011;6639;50.956;4.242;2022-10-16T02:49:18;3.13;;;2.10;;
13147;SDS011;6639;50.956;4.242;2022-10-16T02:51:45;2.00;;;1.90;;
13147;SDS011;6639;50.956;4.242;2022-10-16T02:54:12;2.05;;;1.90;;
13147;SDS011;6639;50.956;4.242;2022-10-16T02:56:39;2.90;;;2.00;;
13147;SDS011;6639;50.956;4.242;2022-10-16T02:59:06;3.13;;;2.03;;
13147;SDS011;6639;50.956;4.242;2022-10-16T03:01:33;3.25;;;2.08;;
13147;SDS011;6639;50.956;4.242;2022-10-16T03:04:01;2.65;;;1.88;;
13147;SDS011;6639;50.956;4.242;2022-10-16T03:06:28;1.88;;;1.73;;
13147;SDS011;6639;50.956;4.242;2022-10-16T03:08:55;3.20;;;1.85;;
13147;SDS011;6639;50.956;4.242;2022-10-16T03:11:22;2.25;;;2.05;;
13147;SDS011;6639;50.956;4.242;2022-10-16T03:13:49;2.30;;;2.10;;
13147;SDS011;6639;50.956;4.242;2022-10-16T03:16:15;3.35;;;2.13;;
13147;SDS011;6639;50.956;4.242;2022-10-16T03:18:42;2.72;;;2.53;;
13147;SDS011;6639;50.956;4.242;2022-10-16T03:21:10;4.30;;;2.33;;
13147;SDS011;6639;50.956;4.242;2022-10-16T03:23:37;2.65;;;2.45;;
13147;SDS011;6639;50.956;4.242;2022-10-16T03:26:04;2.45;;;2.25;;
13147;SDS011;6639;50.956;4.242;2022-10-16T03:28:31;2.42;;;2.20;;
13147;SDS011;6639;50.956;4.242;2022-10-16T03:30:58;2.67;;;2.30;;
13147;SDS011;6639;50.956;4.242;2022-10-16T03:33:25;2.60;;;2.40;;
13147;SDS011;6639;50.956;4.242;2022-10-16T03:35:52;3.47;;;2.40;;
13147;SDS011;6639;50.956;4.242;2022-10-16T03:38:21;2.40;;;2.08;;
13147;SDS011;6639;50.956;4.242;2022-10-16T03:40:48;2.25;;;2.05;;
13147;SDS011;6639;50.956;4.242;2022-10-16T03:43:15;3.85;;;2.28;;
13147;SDS011;6639;50.956;4.242;2022-10-16T03:45:42;2.97;;;2.00;;
13147;SDS011;6639;50.956;4.242;2022-10-16T03:48:09;2.63;;;2.33;;
13147;SDS011;6639;50.956;4.242;2022-10-16T03:50:35;3.45;;;2.20;;
13147;SDS011;6639;50.956;4.242;2022-10-16T03:53:03;2.13;;;2.00;;
13147;SDS011;6639;50.956;4.242;2022-10-16T03:55:31;2.28;;;2.08;;
13147;SDS011;6639;50.956;4.242;2022-10-16T03:57:58;2.00;;;1.90;;
13147;SDS011;6639;50.956;4.242;2022-10-16T04:00:25;2.20;;;2.10;;
13147;SDS011;6639;50.956;4.242;2022-10-16T04:02:52;2.97;;;2.10;;
13147;SDS011;6639;50.956;4.242;2022-10-16T04:05:19;3.03;;;2.33;;
13147;SDS011;6639;50.956;4.242;2022-10-16T04:07:45;2.88;;;2.47;;
13147;SDS011;6639;50.956;4.242;2022-10-16T04:10:12;2.90;;;1.98;;
13147;SDS011;6639;50.956;4.242;2022-10-16T04:12:40;3.15;;;2.25;;
13147;SDS011;6639;50.956;4.242;2022-10-16T04:15:07;2.10;;;1.90;;
13147;SDS011;6639;50.956;4.242;2022-10-16T04:17:35;2.25;;;2.13;;
13147;SDS011;6639;50.956;4.242;2022-10-16T04:20:02;2.33;;;1.92;;
13147;SDS011;6639;50.956;4.242;2022-10-16T04:22:29;3.83;;;2.53;;
13147;SDS011;6639;50.956;4.242;2022-10-16T04:24:56;3.60;;;1.95;;
13147;SDS011;6639;50.956;4.242;2022-10-16T04:27:23;3.97;;;2.15;;
13147;SDS011;6639;50.956;4.242;2022-10-16T04:29:51;2.95;;;2.30;;
13147;SDS011;6639;50.956;4.242;2022-10-16T04:32:18;2.42;;;2.17;;
13147;SDS011;6639;50.956;4.242;2022-10-16T04:34:45;3.42;;;2.53;;
13147;SDS011;6639;50.956;4.242;2022-10-16T04:37:11;4.78;;;2.20;;
13147;SDS011;6639;50.956;4.242;2022-10-16T04:39:38;2.35;;;2.15;;
13147;SDS011;6639;50.956;4.242;2022-10-16T04:42:05;2.70;;;1.92;;
13147;SDS011;6639;50.956;4.242;2022-10-16T04:44:32;5.03;;;1.92;;
13147;SDS011;6639;50.956;4.242;2022-10-16T04:47:00;3.15;;;2.05;;
13147;SDS011;6639;50.956;4.242;2022-10-16T04:49:27;2.70;;;2.50;;
13147;SDS011;6639;50.956;4.242;2022-10-16T04:51:54;4.53;;;2.25;;
13147;SDS011;6639;50.956;4.242;2022-10-16T04:54:20;2.30;;;1.95;;
13147;SDS011;6639;50.956;4.242;2022-10-16T04:56:47;3.10;;;2.10;;
13147;SDS011;6639;50.956;4.242;2022-10-16T04:59:16;5.28;;;2.33;;
13147;SDS011;6639;50.956;4.242;2022-10-16T05:01:43;4.03;;;2.17;;
13147;SDS011;6639;50.956;4.242;2022-10-16T05:04:11;2.10;;;1.85;;
13147;SDS011;6639;50.956;4.242;2022-10-16T05:06:39;3.38;;;1.73;;
13147;SDS011;6639;50.956;4.242;2022-10-16T05:09:07;3.42;;;2.13;;
13147;SDS011;6639;50.956;4.242;2022-10-16T05:11:34;3.55;;;2.20;;
13147;SDS011;6639;50.956;4.242;2022-10-16T05:14:01;5.22;;;2.08;;
13147;SDS011;6639;50.956;4.242;2022-10-16T05:16:28;2.83;;;2.17;;
13147;SDS011;6639;50.956;4.242;2022-10-16T05:18:56;2.45;;;1.80;;
13147;SDS011;6639;50.956;4.242;2022-10-16T05:21:24;2.72;;;1.92;;
13147;SDS011;6639;50.956;4.242;2022-10-16T05:23:52;3.08;;;1.52;;
13147;SDS011;6639;50.956;4.242;2022-10-16T05:26:20;3.60;;;2.00;;
13147;SDS011;6639;50.956;4.242;2022-10-16T05:28:47;2.83;;;1.80;;
13147;SDS011;6639;50.956;4.242;2022-10-16T05:31:15;2.63;;;2.22;;
13147;SDS011;6639;50.956;4.242;2022-10-16T05:33:42;4.60;;;2.10;;
13147;SDS011;6639;50.956;4.242;2022-10-16T05:36:09;4.10;;;2.00;;
13147;SDS011;6639;50.956;4.242;2022-10-16T05:38:38;2.80;;;2.30;;
13147;SDS011;6639;50.956;4.242;2022-10-16T05:41:05;2.13;;;1.92;;
13147;SDS011;6639;50.956;4.242;2022-10-16T05:43:32;2.15;;;1.95;;
13147;SDS011;6639;50.956;4.242;2022-10-16T05:45:59;5.45;;;2.38;;
13147;SDS011;6639;50.956;4.242;2022-10-16T05:48:27;2.53;;;1.88;;
13147;SDS011;6639;50.956;4.242;2022-10-16T05:50:58;2.10;;;1.90;;
13147;SDS011;6639;50.956;4.242;2022-10-16T05:53:26;4.53;;;2.50;;
13147;SDS011;6639;50.956;4.242;2022-10-16T05:55:55;4.30;;;2.47;;
13147;SDS011;6639;50.956;4.242;2022-10-16T05:58:22;2.78;;;2.10;;
13147;SDS011;6639;50.956;4.242;2022-10-16T06:00:53;2.63;;;2.40;;
13147;SDS011;6639;50.956;4.242;2022-10-16T06:03:20;2.35;;;2.10;;
13147;SDS011;6639;50.956;4.242;2022-10-16T06:05:47;2.40;;;2.20;;
13147;SDS011;6639;50.956;4.242;2022-10-16T06:08:14;2.88;;;2.13;;
13147;SDS011;6639;50.956;4.242;2022-10-16T06:10:41;2.55;;;2.30;;
13147;SDS011;6639;50.956;4.242;2022-10-16T06:13:10;2.80;;;2.60;;
13147;SDS011;6639;50.956;4.242;2022-10-16T06:15:37;2.92;;;2.65;;
13147;SDS011;6639;50.956;4.242;2022-10-16T06:18:06;3.00;;;2.17;;
13147;SDS011;6639;50.956;4.242;2022-10-16T06:20:33;2.85;;;2.10;;
13147;SDS011;6639;50.956;4.242;2022-10-16T06:23:00;5.35;;;2.55;;
13147;SDS011;6639;50.956;4.242;2022-10-16T06:25:29;2.95;;;2.38;;
13147;SDS011;6639;50.956;4.242;2022-10-16T06:27:55;3.22;;;2.25;;
13147;SDS011;6639;50.956;4.242;2022-10-16T06:30:24;3.33;;;2.75;;
13147;SDS011;6639;50.956;4.242;2022-10-16T06:32:51;2.58;;;2.22;;
13147;SDS011;6639;50.956;4.242;2022-10-16T06:35:17;3.10;;;2.35;;
13147;SDS011;6639;50.956;4.242;2022-10-16T06:37:44;1.98;;;1.80;;
13147;SDS011;6639;50.956;4.242;2022-10-16T06:40:11;2.60;;;2.40;;
13147;SDS011;6639;50.956;4.242;2022-10-16T06:42:39;2.40;;;2.20;;
13147;SDS011;6639;50.956;4.242;2022-10-16T06:45:06;6.00;;;2.60;;
13147;SDS011;6639;50.956;4.242;2022-10-16T06:47:35;3.40;;;2.35;;
13147;SDS011;6639;50.956;4.242;2022-10-16T06:50:02;2.75;;;2.10;;
13147;SDS011;6639;50.956;4.242;2022-10-16T06:52:31;2.83;;;2.38;;
13147;SDS011;6639;50.956;4.242;2022-10-16T06:54:58;3.92;;;2.80;;
13147;SDS011;6639;50.956;4.242;2022-10-16T06:57:25;3.20;;;2.63;;
13147;SDS011;6639;50.956;4.242;2022-10-16T06:59:52;3.42;;;2.40;;
13147;SDS011;6639;50.956;4.242;2022-10-16T07:02:19;2.85;;;2.38;;
13147;SDS011;6639;50.956;4.242;2022-10-16T07:04:47;2.60;;;1.88;;
13147;SDS011;6639;50.956;4.242;2022-10-16T07:07:14;3.28;;;2.15;;
13147;SDS011;6639;50.956;4.242;2022-10-16T07:09:41;4.40;;;2.28;;
13147;SDS011;6639;50.956;4.242;2022-10-16T07:12:07;3.60;;;1.88;;
13147;SDS011;6639;50.956;4.242;2022-10-16T07:14:34;2.53;;;1.98;;
13147;SDS011;6639;50.956;4.242;2022-10-16T07:17:01;2.08;;;1.50;;
13147;SDS011;6639;50.956;4.242;2022-10-16T07:19:28;2.28;;;1.85;;
13147;SDS011;6639;50.956;4.242;2022-10-16T07:21:57;2.45;;;1.77;;
13147;SDS011;6639;50.956;4.242;2022-10-16T07:24:24;1.92;;;1.63;;
13147;SDS011;6639;50.956;4.242;2022-10-16T07:26:50;3.20;;;1.60;;
13147;SDS011;6639;50.956;4.242;2022-10-16T07:29:18;1.63;;;1.50;;
13147;SDS011;6639;50.956;4.242;2022-10-16T07:31:47;2.13;;;1.65;;
13147;SDS011;6639;50.956;4.242;2022-10-16T07:34:15;4.03;;;2.15;;
13147;SDS011;6639;50.956;4.242;2022-10-16T07:36:43;1.88;;;1.40;;
13147;SDS011;6639;50.956;4.242;2022-10-16T07:39:12;3.50;;;2.00;;
13147;SDS011;6639;50.956;4.242;2022-10-16T07:41:39;2.53;;;1.45;;
13147;SDS011;6639;50.956;4.242;2022-10-16T07:44:06;2.08;;;1.55;;
13147;SDS011;6639;50.956;4.242;2022-10-16T07:46:33;1.85;;;1.50;;
13147;SDS011;6639;50.956;4.242;2022-10-16T07:49:00;2.33;;;1.55;;
13147;SDS011;6639;50.956;4.242;2022-10-16T07:51:27;2.85;;;1.30;;
13147;SDS011;6639;50.956;4.242;2022-10-16T07:53:54;1.50;;;1.40;;
13147;SDS011;6639;50.956;4.242;2022-10-16T07:56:23;1.45;;;1.35;;
13147;SDS011;6639;50.956;4.242;2022-10-16T07:58:50;1.35;;;1.25;;
13147;SDS011;6639;50.956;4.242;2022-10-16T08:01:17;3.63;;;1.45;;
13147;SDS011;6639;50.956;4.242;2022-10-16T08:03:45;2.78;;;1.95;;
13147;SDS011;6639;50.956;4.242;2022-10-16T08:06:13;1.65;;;1.42;;
13147;SDS011;6639;50.956;4.242;2022-10-16T08:08:40;1.70;;;1.60;;
13147;SDS011;6639;50.956;4.242;2022-10-16T08:11:07;2.08;;;1.40;;
13147;SDS011;6639;50.956;4.242;2022-10-16T08:13:36;3.15;;;1.70;;
13147;SDS011;6639;50.956;4.242;2022-10-16T08:16:03;4.32;;;1.40;;
13147;SDS011;6639;50.956;4.242;2022-10-16T08:18:32;4.00;;;1.75;;
13147;SDS011;6639;50.956;4.242;2022-10-16T08:21:00;2.63;;;1.40;;
13147;SDS011;6639;50.956;4.242;2022-10-16T08:23:27;2.70;;;1.75;;
13147;SDS011;6639;50.956;4.242;2022-10-16T08:25:54;2.50;;;1.23;;
13147;SDS011;6639;50.956;4.242;2022-10-16T08:28:22;4.03;;;1.70;;
13147;SDS011;6639;50.956;4.242;2022-10-16T08:30:51;1.77;;;1.42;;
13147;SDS011;6639;50.956;4.242;2022-10-16T08:33:17;2.47;;;1.40;;
13147;SDS011;6639;50.956;4.242;2022-10-16T08:35:50;2.47;;;1.40;;
13147;SDS011;6639;50.956;4.242;2022-10-16T08:38:18;3.85;;;1.52;;
13147;SDS011;6639;50.956;4.242;2022-10-16T08:40:45;1.77;;;1.15;;
13147;SDS011;6639;50.956;4.242;2022-10-16T08:43:25;2.92;;;1.33;;
13147;SDS011;6639;50.956;4.242;2022-10-16T08:46:15;1.55;;;1.20;;
13147;SDS011;6639;50.956;4.242;2022-10-16T08:48:47;2.35;;;1.48;;
13147;SDS011;6639;50.956;4.242;2022-10-16T08:51:18;3.83;;;1.25;;
13147;SDS011;6639;50.956;4.242;2022-10-16T08:53:49;2.92;;;1.70;;
13147;SDS011;6639;50.956;4.242;2022-10-16T08:56:20;4.07;;;1.40;;
13147;SDS011;6639;50.956;4.242;2022-10-16T08:58:47;5.47;;;1.60;;
13147;SDS011;6639;50.956;4.242;2022-10-16T09:01:16;4.28;;;1.48;;
13147;SDS011;6639;50.956;4.242;2022-10-16T09:03:49;2.65;;;1.38;;
13147;SDS011;6639;50.956;4.242;2022-10-16T09:06:32;2.92;;;1.33;;
13147;SDS011;6639;50.956;4.242;2022-10-16T09:09:17;1.95;;;1.40;;
13147;SDS011;6639;50.956;4.242;2022-10-16T09:11:51;2.28;;;1.25;;
13147;SDS011;6639;50.956;4.242;2022-10-16T09:14:30;2.22;;;1.27;;
13147;SDS011;6639;50.956;4.242;2022-10-16T09:17:11;4.63;;;1.50;;
13147;SDS011;6639;50.956;4.242;2022-10-16T09:19:49;2.33;;;1.30;;
13147;SDS011;6639;50.956;4.242;2022-10-16T09:22:21;5.13;;;1.13;;
13147;SDS011;6639;50.956;4.242;2022-10-16T09:24:53;3.92;;;1.40;;
13147;SDS011;6639;50.956;4.242;2022-10-16T09:27:24;2.60;;;0.95;;
13147;SDS011;6639;50.956;4.242;2022-10-16T09:29:52;3.10;;;1.20;;
13147;SDS011;6639;50.956;4.242;2022-10-16T09:32:21;3.25;;;1.30;;
13147;SDS011;6639;50.956;4.242;2022-10-16T09:34:49;3.75;;;1.77;;
13147;SDS011;6639;50.956;4.242;2022-10-16T09:37:19;4.05;;;1.25;;
13147;SDS011;6639;50.956;4.242;2022-10-16T09:39:49;2.05;;;1.27;;
13147;SDS011;6639;50.956;4.242;2022-10-16T09:42:17;2.90;;;1.40;;
13147;SDS011;6639;50.956;4.242;2022-10-16T09:44:46;5.35;;;1.42;;
13147;SDS011;6639;50.956;4.242;2022-10-16T09:47:16;2.20;;;1.17;;
13147;SDS011;6639;50.956;4.242;2022-10-16T09:49:53;4.47;;;1.67;;
13147;SDS011;6639;50.956;4.242;2022-10-16T09:52:22;3.08;;;1.42;;
13147;SDS011;6639;50.956;4.242;2022-10-16T09:54:50;2.95;;;1.25;;
13147;SDS011;6639;50.956;4.242;2022-10-16T09:57:18;4.43;;;1.42;;
13147;SDS011;6639;50.956;4.242;2022-10-16T09:59:46;2.90;;;1.50;;
13147;SDS011;6639;50.956;4.242;2022-10-16T10:02:14;2.67;;;1.13;;
13147;SDS011;6639;50.956;4.242;2022-10-16T10:04:44;3.45;;;1.55;;
13147;SDS011;6639;50.956;4.242;2022-10-16T10:07:20;4.75;;;1.60;;
13147;SDS011;6639;50.956;4.242;2022-10-16T10:09:51;2.10;;;1.33;;
13147;SDS011;6639;50.956;4.242;2022-10-16T10:12:20;2.72;;;1.23;;
13147;SDS011;6639;50.956;4.242;2022-10-16T10:14:50;3.13;;;1.30;;
13147;SDS011;6639;50.956;4.242;2022-10-16T10:17:19;1.80;;;1.10;;
13147;SDS011;6639;50.956;4.242;2022-10-16T10:19:49;4.85;;;1.67;;
13147;SDS011;6639;50.956;4.242;2022-10-16T10:22:26;2.95;;;1.50;;
13147;SDS011;6639;50.956;4.242;2022-10-16T10:25:12;3.55;;;1.30;;
13147;SDS011;6639;50.956;4.242;2022-10-16T10:27:50;2.47;;;1.48;;
13147;SDS011;6639;50.956;4.242;2022-10-16T10:30:26;3.58;;;1.23;;
13147;SDS011;6639;50.956;4.242;2022-10-16T10:33:06;4.22;;;1.45;;
13147;SDS011;6639;50.956;4.242;2022-10-16T10:35:44;4.78;;;1.52;;
13147;SDS011;6639;50.956;4.242;2022-10-16T10:38:24;1.90;;;1.30;;
13147;SDS011;6639;50.956;4.242;2022-10-16T10:40:59;1.77;;;1.25;;
13147;SDS011;6639;50.956;4.242;2022-10-16T10:43:39;3.67;;;1.48;;
13147;SDS011;6639;50.956;4.242;2022-10-16T10:46:16;3.65;;;1.33;;
13147;SDS011;6639;50.956;4.242;2022-10-16T10:48:58;3.30;;;1.50;;
13147;SDS011;6639;50.956;4.242;2022-10-16T10:51:40;2.72;;;1.73;;
13147;SDS011;6639;50.956;4.242;2022-10-16T10:54:16;4.15;;;1.40;;
13147;SDS011;6639;50.956;4.242;2022-10-16T10:56:50;2.35;;;1.27;;
13147;SDS011;6639;50.956;4.242;2022-10-16T10:59:38;3.28;;;1.20;;
13147;SDS011;6639;50.956;4.242;2022-10-16T11:02:18;2.72;;;1.63;;
13147;SDS011;6639;50.956;4.242;2022-10-16T11:05:10;3.10;;;1.40;;
13147;SDS011;6639;50.956;4.242;2022-10-16T11:07:55;2.72;;;1.42;;
13147;SDS011;6639;50.956;4.242;2022-10-16T11:10:28;2.22;;;1.40;;
13147;SDS011;6639;50.956;4.242;2022-10-16T11:13:04;2.80;;;1.42;;
13147;SDS011;6639;50.956;4.242;2022-10-16T11:15:37;4.65;;;1.60;;
13147;SDS011;6639;50.956;4.242;2022-10-16T11:18:08;2.75;;;1.20;;
13147;SDS011;6639;50.956;4.242;2022-10-16T11:20:42;2.20;;;1.10;;
13147;SDS011;6639;50.956;4.242;2022-10-16T11:23:13;2.42;;;1.27;;
13147;SDS011;6639;50.956;4.242;2022-10-16T11:25:45;2.05;;;1.25;;
13147;SDS011;6639;50.956;4.242;2022-10-16T11:28:14;3.00;;;1.73;;
13147;SDS011;6639;50.956;4.242;2022-10-16T11:30:46;2.15;;;1.13;;
13147;SDS011;6639;50.956;4.242;2022-10-16T11:33:24;2.97;;;1.50;;
13147;SDS011;6639;50.956;4.242;2022-10-16T11:35:59;2.90;;;1.20;;
13147;SDS011;6639;50.956;4.242;2022-10-16T11:38:30;2.92;;;1.20;;
13147;SDS011;6639;50.956;4.242;2022-10-16T11:41:04;2.25;;;0.93;;
13147;SDS011;6639;50.956;4.242;2022-10-16T11:43:46;4.57;;;1.05;;
13147;SDS011;6639;50.956;4.242;2022-10-16T11:46:19;3.00;;;1.42;;
13147;SDS011;6639;50.956;4.242;2022-10-16T11:48:50;5.07;;;1.33;;
13147;SDS011;6639;50.956;4.242;2022-10-16T11:51:25;4.13;;;1.20;;
13147;SDS011;6639;50.956;4.242;2022-10-16T11:53:59;2.55;;;1.27;;
13147;SDS011;6639;50.956;4.242;2022-10-16T11:56:33;3.45;;;1.30;;
13147;SDS011;6639;50.956;4.242;2022-10-16T11:59:05;3.10;;;1.17;;
13147;SDS011;6639;50.956;4.242;2022-10-16T12:01:40;3.42;;;1.20;;
13147;SDS011;6639;50.956;4.242;2022-10-16T12:04:14;1.83;;;1.30;;
13147;SDS011;6639;50.956;4.242;2022-10-16T12:06:46;2.17;;;1.17;;
13147;SDS011;6639;50.956;4.242;2022-10-16T12:09:19;3.45;;;0.98;;
13147;SDS011;6639;50.956;4.242;2022-10-16T12:11:50;2.47;;;0.95;;
13147;SDS011;6639;50.956;4.242;2022-10-16T12:14:18;3.55;;;1.45;;
13147;SDS011;6639;50.956;4.242;2022-10-16T12:17:03;1.75;;;0.98;;
13147;SDS011;6639;50.956;4.242;2022-10-16T12:19:56;3.95;;;1.20;;
13147;SDS011;6639;50.956;4.242;2022-10-16T12:22:24;2.03;;;1.15;;
13147;SDS011;6639;50.956;4.242;2022-10-16T12:24:54;2.08;;;0.95;;
13147;SDS011;6639;50.956;4.242;2022-10-16T12:27:24;3.53;;;1.13;;
13147;SDS011;6639;50.956;4.242;2022-10-16T12:29:54;2.10;;;1.00;;
13147;SDS011;6639;50.956;4.242;2022-10-16T12:32:26;3.33;;;1.55;;
13147;SDS011;6639;50.956;4.242;2022-10-16T12:34:55;2.60;;;0.98;;
13147;SDS011;6639;50.956;4.242;2022-10-16T12:37:23;1.65;;;1.10;;
13147;SDS011;6639;50.956;4.242;2022-10-16T12:39:52;1.08;;;0.95;;
13147;SDS011;6639;50.956;4.242;2022-10-16T12:42:22;2.42;;;0.98;;
13147;SDS011;6639;50.956;4.242;2022-10-16T12:44:59;1.48;;;0.88;;
13147;SDS011;6639;50.956;4.242;2022-10-16T12:47:36;1.88;;;1.20;;
13147;SDS011;6639;50.956;4.242;2022-10-16T12:52:50;1.33;;;1.05;;
13147;SDS011;6639;50.956;4.242;2022-10-16T12:55:18;1.65;;;0.85;;
13147;SDS011;6639;50.956;4.242;2022-10-16T12:57:54;2.83;;;1.30;;
13147;SDS011;6639;50.956;4.242;2022-10-16T13:00:40;1.63;;;0.85;;
13147;SDS011;6639;50.956;4.242;2022-10-16T13:03:22;1.23;;;0.98;;
13147;SDS011;6639;50.956;4.242;2022-10-16T13:06:14;1.75;;;1.27;;
13147;SDS011;6639;50.956;4.242;2022-10-16T13:08:59;1.70;;;0.80;;
13147;SDS011;6639;50.956;4.242;2022-10-16T13:11:39;2.63;;;1.05;;
13147;SDS011;6639;50.956;4.242;2022-10-16T13:17:20;1.20;;;1.10;;
13147;SDS011;6639;50.956;4.242;2022-10-16T13:19:55;2.72;;;1.13;;
13147;SDS011;6639;50.956;4.242;2022-10-16T13:22:29;4.03;;;1.30;;
13147;SDS011;6639;50.956;4.242;2022-10-16T13:25:05;2.88;;;1.08;;
13147;SDS011;6639;50.956;4.242;2022-10-16T13:27:44;1.67;;;0.90;;
13147;SDS011;6639;50.956;4.242;2022-10-16T13:30:18;2.05;;;1.08;;
13147;SDS011;6639;50.956;4.242;2022-10-16T13:32:47;1.67;;;0.70;;
13147;SDS011;6639;50.956;4.242;2022-10-16T13:35:20;1.25;;;0.90;;
13147;SDS011;6639;50.956;4.242;2022-10-16T13:37:49;2.25;;;1.00;;
13147;SDS011;6639;50.956;4.242;2022-10-16T13:40:20;1.60;;;1.05;;
13147;SDS011;6639;50.956;4.242;2022-10-16T13:42:48;1.30;;;1.00;;
13147;SDS011;6639;50.956;4.242;2022-10-16T13:45:18;2.67;;;1.20;;
13147;SDS011;6639;50.956;4.242;2022-10-16T13:47:47;3.67;;;1.23;;
13147;SDS011;6639;50.956;4.242;2022-10-16T13:50:15;1.92;;;1.23;;
13147;SDS011;6639;50.956;4.242;2022-10-16T13:52:43;1.35;;;1.00;;
13147;SDS011;6639;50.956;4.242;2022-10-16T13:55:10;1.27;;;1.13;;
13147;SDS011;6639;50.956;4.242;2022-10-16T13:57:38;1.42;;;0.80;;
13147;SDS011;6639;50.956;4.242;2022-10-16T14:00:17;2.08;;;1.00;;
13147;SDS011;6639;50.956;4.242;2022-10-16T14:02:49;1.65;;;0.82;;
13147;SDS011;6639;50.956;4.242;2022-10-16T14:05:19;2.30;;;1.05;;
13147;SDS011;6639;50.956;4.242;2022-10-16T14:07:47;1.17;;;0.90;;
13147;SDS011;6639;50.956;4.242;2022-10-16T14:10:20;2.67;;;1.42;;
13147;SDS011;6639;50.956;4.242;2022-10-16T14:12:54;2.35;;;1.13;;
13147;SDS011;6639;50.956;4.242;2022-10-16T14:15:23;1.45;;;1.30;;
13147;SDS011;6639;50.956;4.242;2022-10-16T14:17:51;2.22;;;1.02;;
13147;SDS011;6639;50.956;4.242;2022-10-16T14:20:20;4.03;;;1.33;;
13147;SDS011;6639;50.956;4.242;2022-10-16T14:22:57;3.72;;;1.30;;
13147;SDS011;6639;50.956;4.242;2022-10-16T14:25:26;1.38;;;1.08;;
13147;SDS011;6639;50.956;4.242;2022-10-16T14:28:03;1.10;;;0.80;;
13147;SDS011;6639;50.956;4.242;2022-10-16T14:30:49;1.15;;;0.80;;
13147;SDS011;6639;50.956;4.242;2022-10-16T14:33:21;1.55;;;1.00;;
13147;SDS011;6639;50.956;4.242;2022-10-16T14:35:59;1.95;;;1.23;;
13147;SDS011;6639;50.956;4.242;2022-10-16T14:38:28;1.48;;;0.95;;
13147;SDS011;6639;50.956;4.242;2022-10-16T14:40:57;1.52;;;1.02;;
13147;SDS011;6639;50.956;4.242;2022-10-16T14:43:26;3.65;;;1.25;;
13147;SDS011;6639;50.956;4.242;2022-10-16T14:46:00;1.60;;;0.93;;
13147;SDS011;6639;50.956;4.242;2022-10-16T14:48:28;2.10;;;1.13;;
13147;SDS011;6639;50.956;4.242;2022-10-16T14:50:55;1.95;;;1.38;;
13147;SDS011;6639;50.956;4.242;2022-10-16T14:53:22;4.53;;;1.50;;
13147;SDS011;6639;50.956;4.242;2022-10-16T14:55:49;1.67;;;1.17;;
13147;SDS011;6639;50.956;4.242;2022-10-16T14:58:17;2.90;;;1.40;;
13147;SDS011;6639;50.956;4.242;2022-10-16T15:00:46;2.95;;;1.73;;
13147;SDS011;6639;50.956;4.242;2022-10-16T15:03:15;3.05;;;1.63;;
13147;SDS011;6639;50.956;4.242;2022-10-16T15:05:42;1.30;;;1.15;;
13147;SDS011;6639;50.956;4.242;2022-10-16T15:08:09;2.33;;;1.50;;
13147;SDS011;6639;50.956;4.242;2022-10-16T15:10:38;2.55;;;1.70;;
13147;SDS011;6639;50.956;4.242;2022-10-16T15:13:08;4.50;;;2.13;;
13147;SDS011;6639;50.956;4.242;2022-10-16T15:15:39;4.25;;;1.40;;
13147;SDS011;6639;50.956;4.242;2022-10-16T15:18:09;3.08;;;1.45;;
13147;SDS011;6639;50.956;4.242;2022-10-16T15:20:38;2.15;;;1.15;;
13147;SDS011;6639;50.956;4.242;2022-10-16T15:23:06;1.52;;;1.27;;
13147;SDS011;6639;50.956;4.242;2022-10-16T15:25:39;1.52;;;1.10;;